Time;durP1;ratioP1;P1;durP2;ratioP2;P2;SDS_P1;SDS_P2;PMS_P1;PMS_P2;Temp;Humidity;BMP_temperature;BMP_pressure;BME280_temperature;BME280_humidity;BME280_pressure;Samples;Min_cycle;Max_cycle;Signal;HPM_P1;HPM_P2
2021/10/28 00:14:29;;;;;;;8.98;5.82;;;;;;;10.59;100.00;101532.63;4880369;29;20056;-72
2021/10/28 00:16:58;;;;;;;10.23;6.63;;;;;;;10.52;100.00;101542.53;4901843;29;20082;-72
2021/10/28 00:19:28;;;;;;;9.57;6.20;;;;;;;10.23;100.00;101542.94;4899128;29;20056;-72
2021/10/28 00:21:56;;;;;;;10.65;5.97;;;;;;;10.14;100.00;101542.41;4884560;29;20051;-72
2021/10/28 00:24:23;;;;;;;8.02;6.43;;;;;;;9.92;100.00;101536.34;4898056;29;20076;-71
2021/10/28 00:26:51;;;;;;;7.28;6.15;;;;;;;9.87;100.00;101538.31;4898446;29;20050;-71
2021/10/28 00:29:20;;;;;;;11.15;6.97;;;;;;;9.80;100.00;101547.34;4879443;29;20085;-73
2021/10/28 00:31:47;;;;;;;9.02;6.85;;;;;;;9.64;100.00;101544.50;4898433;29;20128;-72
2021/10/28 00:34:16;;;;;;;9.73;6.97;;;;;;;9.45;100.00;101549.59;4891644;29;20075;-72
2021/10/28 00:36:48;;;;;;;10.60;7.07;;;;;;;9.43;100.00;101543.56;4903119;29;20535;-72
2021/10/28 00:39:15;;;;;;;11.38;7.32;;;;;;;9.37;100.00;101544.69;4895345;29;20067;-71
2021/10/28 00:41:42;;;;;;;11.60;7.32;;;;;;;9.33;100.00;101552.75;4911122;29;20040;-71
2021/10/28 00:44:12;;;;;;;8.40;6.95;;;;;;;9.34;100.00;101544.78;4882667;29;20583;-72
2021/10/28 00:46:40;;;;;;;10.43;7.63;;;;;;;9.25;100.00;101544.28;4898529;29;20067;-73
2021/10/28 00:49:11;;;;;;;9.63;7.30;;;;;;;9.28;100.00;101544.19;4895864;29;20067;-72
2021/10/28 00:51:40;;;;;;;10.55;7.70;;;;;;;9.24;100.00;101543.44;4885584;29;20053;-71
2021/10/28 00:54:11;;;;;;;10.20;7.78;;;;;;;9.51;100.00;101546.75;4873106;29;20527;-72
2021/10/28 00:56:40;;;;;;;10.45;7.90;;;;;;;9.43;100.00;101543.56;4885125;29;20056;-70
2021/10/28 00:59:08;;;;;;;7.97;6.63;;;;;;;9.41;100.00;101541.91;4860300;29;20052;-71
2021/10/28 01:01:35;;;;;;;9.15;7.10;;;;;;;9.19;100.00;101541.91;4874926;29;20112;-72
2021/10/28 01:04:04;;;;;;;8.32;7.45;;;;;;;9.22;100.00;101540.00;4879543;29;20044;-73
2021/10/28 01:06:31;;;;;;;9.55;7.07;;;;;;;9.55;100.00;101543.09;4896102;29;20082;-72
2021/10/28 01:08:58;;;;;;;11.38;8.45;;;;;;;9.55;100.00;101543.09;4877684;29;20069;-71
2021/10/28 01:11:27;;;;;;;8.05;7.20;;;;;;;9.61;100.00;101542.84;4881148;29;20053;-71
2021/10/28 01:13:56;;;;;;;8.60;7.65;;;;;;;9.49;100.00;101537.22;4875363;29;20060;-72
2021/10/28 01:16:23;;;;;;;8.43;7.53;;;;;;;9.42;100.00;101539.25;4891412;29;20529;-71
2021/10/28 01:18:51;;;;;;;13.50;8.30;;;;;;;9.36;100.00;101537.69;4899004;29;20060;-70
2021/10/28 01:21:18;;;;;;;9.77;8.23;;;;;;;9.24;100.00;101540.81;4900687;29;20063;-71
2021/10/28 01:23:46;;;;;;;10.40;8.70;;;;;;;8.99;100.00;101540.03;4888106;29;20053;-69
2021/10/28 01:26:14;;;;;;;12.77;9.27;;;;;;;9.04;100.00;101533.69;4884585;29;20052;-69
2021/10/28 01:29:07;;;;;;;9.68;8.18;;;;;;;9.07;100.00;101540.59;4878542;29;20060;-72
2021/10/28 01:31:35;;;;;;;9.48;8.48;;;;;;;8.95;100.00;101538.44;4874184;29;20154;-71
2021/10/28 01:34:04;;;;;;;10.10;9.00;;;;;;;8.78;100.00;101542.56;4901258;29;20155;-71
2021/10/28 01:36:32;;;;;;;12.90;9.68;;;;;;;8.87;100.00;101546.59;4894463;29;20060;-73
2021/10/28 01:39:13;;;;;;;12.80;10.15;;;;;;;8.81;100.00;101541.56;4877750;29;20056;-72
2021/10/28 01:41:40;;;;;;;12.23;10.13;;;;;;;8.79;100.00;101543.41;4878188;29;20066;-71
2021/10/28 01:44:07;;;;;;;11.50;10.10;;;;;;;9.00;100.00;101534.72;4882831;29;20076;-71
2021/10/28 01:46:34;;;;;;;11.05;9.65;;;;;;;8.94;100.00;101539.34;4897362;29;20048;-70
2021/10/28 01:49:02;;;;;;;11.35;10.25;;;;;;;8.80;100.00;101540.72;4898931;29;20052;-72
2021/10/28 01:51:29;;;;;;;10.73;9.65;;;;;;;8.77;100.00;101537.34;4861371;29;20083;-71
2021/10/28 01:53:56;;;;;;;15.43;9.88;;;;;;;8.69;100.00;101542.00;4878693;29;20053;-70
2021/10/28 01:56:23;;;;;;;11.90;10.38;;;;;;;8.71;100.00;101535.81;4880681;29;20084;-71
2021/10/28 01:58:51;;;;;;;14.63;11.25;;;;;;;8.63;100.00;101541.31;4900999;29;20063;-71
2021/10/28 02:01:19;;;;;;;12.93;11.18;;;;;;;8.75;100.00;101537.41;4900178;29;20155;-70
2021/10/28 02:03:46;;;;;;;14.38;10.77;;;;;;;8.72;100.00;101541.91;4898304;29;20056;-71
2021/10/28 02:06:14;;;;;;;13.15;11.85;;;;;;;8.77;100.00;101537.34;4865135;29;20049;-70
2021/10/28 02:08:41;;;;;;;14.43;12.70;;;;;;;8.65;100.00;101532.56;4881820;29;20048;-70
2021/10/28 02:11:08;;;;;;;13.02;11.27;;;;;;;8.82;100.00;101541.50;4897364;29;20064;-70
2021/10/28 02:13:35;;;;;;;18.52;13.80;;;;;;;8.74;100.00;101532.22;4909539;29;20143;-70
2021/10/28 02:16:02;;;;;;;14.07;12.57;;;;;;;8.54;100.00;101525.06;4905658;29;20060;-70
2021/10/28 02:18:30;;;;;;;16.25;13.60;;;;;;;8.43;100.00;101529.84;4906990;29;20056;-70
2021/10/28 02:20:57;;;;;;;15.32;13.73;;;;;;;8.29;100.00;101519.81;4883148;29;20065;-71
2021/10/28 02:23:24;;;;;;;16.27;14.57;;;;;;;8.33;100.00;101518.75;4872621;29;20617;-71
2021/10/28 02:25:51;;;;;;;18.25;14.93;;;;;;;8.43;100.00;101525.44;4894901;29;20068;-72
2021/10/28 02:28:18;;;;;;;15.88;14.25;;;;;;;8.19;100.00;101527.13;4899927;29;20059;-71
2021/10/28 02:30:46;;;;;;;20.75;15.73;;;;;;;8.05;100.00;101527.59;4892844;29;20072;-71
2021/10/28 02:33:13;;;;;;;18.95;16.90;;;;;;;7.93;100.00;101527.19;4896798;29;20053;-70
2021/10/28 02:35:40;;;;;;;18.30;16.38;;;;;;;7.81;100.00;101536.28;4889171;29;20054;-72
2021/10/28 02:38:08;;;;;;;19.38;17.40;;;;;;;7.83;100.00;101527.47;4882744;29;20067;-72
2021/10/28 02:40:35;;;;;;;20.45;16.35;;;;;;;7.91;100.00;101524.59;4876782;29;20050;-72
2021/10/28 02:43:02;;;;;;;20.77;18.60;;;;;;;7.93;100.00;101522.78;4905861;29;20069;-71
2021/10/28 02:45:29;;;;;;;22.77;19.98;;;;;;;7.84;100.00;101530.97;4901922;29;20242;-71
2021/10/28 02:47:57;;;;;;;25.85;19.80;;;;;;;7.99;100.00;101526.97;4899954;29;20515;-72
2021/10/28 02:50:24;;;;;;;21.45;19.23;;;;;;;8.07;100.00;101525.78;4880737;29;20419;-72
2021/10/28 02:52:51;;;;;;;21.73;18.17;;;;;;;8.10;100.00;101522.19;4883971;29;20074;-72
2021/10/28 02:55:20;;;;;;;21.95;19.63;;;;;;;7.95;100.00;101517.47;4899792;29;20052;-73
2021/10/28 02:57:47;;;;;;;22.52;18.10;;;;;;;8.03;100.00;101524.19;4885534;29;20044;-71
2021/10/28 03:00:14;;;;;;;26.98;19.92;;;;;;;8.12;100.00;101518.63;4898319;29;20143;-71
2021/10/28 03:02:41;;;;;;;23.60;19.98;;;;;;;8.18;100.00;101522.78;4895805;29;20066;-71
2021/10/28 03:05:10;;;;;;;23.63;19.13;;;;;;;8.31;100.00;101518.81;4896370;29;20058;-72
2021/10/28 03:07:38;;;;;;;20.40;17.90;;;;;;;8.19;100.00;101523.63;4886537;29;20059;-72
2021/10/28 03:10:08;;;;;;;21.42;18.77;;;;;;;8.13;100.00;101522.94;4898251;29;20246;-72
2021/10/28 03:12:37;;;;;;;20.80;18.38;;;;;;;8.09;100.00;101523.97;4907355;29;20056;-72
2021/10/28 03:15:08;;;;;;;22.63;18.23;;;;;;;7.92;100.00;101522.81;4881678;29;20143;-72
2021/10/28 03:25:42;;;;;;;20.90;17.60;;;;;;;8.02;100.00;101525.09;4891465;29;20059;-71
2021/10/28 03:28:27;;;;;;;21.50;18.70;;;;;;;7.87;100.00;101517.72;4892422;29;20598;-72
2021/10/28 03:30:54;;;;;;;22.83;19.40;;;;;;;7.68;100.00;101525.34;4878126;29;20048;-71
2021/10/28 03:33:23;;;;;;;23.80;19.33;;;;;;;7.53;100.00;101524.09;4900386;29;20559;-72
2021/10/28 03:35:51;;;;;;;21.88;19.27;;;;;;;7.57;100.00;101530.94;4866851;29;20055;-71
2021/10/28 03:38:25;;;;;;;23.33;20.30;;;;;;;7.39;100.00;101526.28;4886183;29;20068;-73
2021/10/28 03:41:20;;;;;;;25.70;19.08;;;;;;;7.28;100.00;101526.59;4882907;29;20051;-71
2021/10/28 03:46:44;;;;;;;28.65;19.83;;;;;;;7.54;100.00;101532.78;4884513;29;20048;-73
2021/10/28 03:55:02;;;;;;;24.33;20.00;;;;;;;7.59;100.00;101525.66;4880194;29;20079;-72
2021/10/28 04:08:29;;;;;;;28.98;21.95;;;;;;;7.46;100.00;101521.69;4894841;29;20052;-73
2021/10/28 04:30:09;;;;;;;23.10;19.60;;;;;;;7.38;100.00;101518.44;4883176;29;20048;-71
2021/10/28 04:32:36;;;;;;;24.88;20.48;;;;;;;7.34;100.00;101515.94;4899214;29;20048;-73
2021/10/28 04:35:04;;;;;;;25.35;21.20;;;;;;;7.42;100.00;101520.06;4901594;29;20052;-73
2021/10/28 04:37:31;;;;;;;24.98;21.08;;;;;;;7.48;100.00;101518.13;4891410;29;20061;-74
2021/10/28 04:39:58;;;;;;;29.63;22.10;;;;;;;7.53;100.00;101520.59;4874681;29;20049;-75
2021/10/28 04:42:25;;;;;;;23.95;19.02;;;;;;;7.50;100.00;101523.31;4906200;29;20052;-75
2021/10/28 04:44:52;;;;;;;27.90;18.67;;;;;;;7.44;100.00;101519.13;4863013;29;20052;-74
2021/10/28 04:47:19;;;;;;;25.48;20.27;;;;;;;7.56;100.00;101521.34;4899665;29;20749;-76
2021/10/28 04:49:47;;;;;;;27.27;21.08;;;;;;;7.46;100.00;101516.44;4897551;29;20065;-75
2021/10/28 04:52:15;;;;;;;25.13;19.92;;;;;;;7.43;100.00;101517.44;4877975;29;20074;-74
2021/10/28 04:54:42;;;;;;;25.02;20.02;;;;;;;7.48;100.00;101522.53;4876758;29;20052;-75
2021/10/28 04:57:09;;;;;;;28.40;21.52;;;;;;;7.40;100.00;101516.66;4891513;29;20083;-74
2021/10/28 04:59:36;;;;;;;24.95;21.17;;;;;;;7.48;100.00;101518.13;4874939;29;20067;-76
2021/10/28 05:02:05;;;;;;;24.83;19.85;;;;;;;7.29;100.00;101514.34;4892357;29;20052;-74
2021/10/28 05:04:32;;;;;;;25.05;20.45;;;;;;;7.25;100.00;101515.34;4871693;29;20693;-73
2021/10/28 05:07:00;;;;;;;25.63;20.55;;;;;;;7.16;100.00;101507.78;4856480;29;20052;-75
2021/10/28 05:09:29;;;;;;;23.63;19.23;;;;;;;7.11;100.00;101505.31;4880056;29;20063;-75
2021/10/28 05:11:56;;;;;;;27.30;21.02;;;;;;;7.13;100.00;101507.91;4870211;29;20580;-75
2021/10/28 05:14:24;;;;;;;30.48;21.83;;;;;;;7.21;100.00;101504.16;4873996;29;20143;-74
2021/10/28 05:16:56;;;;;;;24.27;20.08;;;;;;;6.94;100.00;101508.44;4875071;29;20061;-75
2021/10/28 05:19:29;;;;;;;29.65;21.35;;;;;;;6.90;100.00;101506.81;4872823;29;20209;-75
2021/10/28 05:21:56;;;;;;;28.10;22.23;;;;;;;6.80;100.00;101506.25;4889764;29;20145;-74
2021/10/28 05:24:23;;;;;;;29.15;22.08;;;;;;;6.90;100.00;101505.97;4892344;29;20056;-74
2021/10/28 05:26:54;;;;;;;28.83;21.42;;;;;;;6.84;100.00;101506.97;4896729;29;20599;-74
2021/10/28 05:29:21;;;;;;;31.67;21.10;;;;;;;6.72;100.00;101507.38;4874761;29;20538;-75
2021/10/28 05:31:48;;;;;;;32.45;23.70;;;;;;;6.57;100.00;101508.63;4873630;29;20087;-74
2021/10/28 05:34:16;;;;;;;31.85;22.23;;;;;;;6.66;100.00;101504.91;4887966;29;20036;-75
2021/10/28 05:36:43;;;;;;;35.25;23.63;;;;;;;6.81;100.00;101512.34;4875843;29;20056;-73
2021/10/28 05:39:10;;;;;;;30.42;23.48;;;;;;;6.83;100.00;101506.13;4859767;29;20048;-74
2021/10/28 05:41:37;;;;;;;27.70;22.67;;;;;;;6.99;100.00;101516.16;4875401;29;20052;-74
2021/10/28 05:44:04;;;;;;;31.63;22.75;;;;;;;6.98;100.00;101511.81;4872964;29;20053;-74
2021/10/28 05:46:33;;;;;;;32.03;23.85;;;;;;;7.01;100.00;101512.59;4862348;29;20055;-75
2021/10/28 05:49:00;;;;;;;28.42;22.33;;;;;;;7.09;100.00;101505.34;4866295;29;20504;-75
2021/10/28 05:51:29;;;;;;;27.45;22.23;;;;;;;7.14;100.00;101513.06;4857945;29;20057;-74
2021/10/28 05:53:57;;;;;;;28.08;21.20;;;;;;;7.22;100.00;101510.22;4877796;29;20093;-73
2021/10/28 05:56:24;;;;;;;26.67;21.60;;;;;;;7.23;100.00;101504.94;4884458;29;20086;-75
2021/10/28 05:58:52;;;;;;;28.70;21.85;;;;;;;7.31;100.00;101507.31;4885266;29;20516;-75
2021/10/28 06:01:20;;;;;;;26.85;20.60;;;;;;;7.31;100.00;101505.56;4877051;29;20044;-75
2021/10/28 06:03:48;;;;;;;29.65;21.38;;;;;;;7.25;100.00;101508.38;4865871;29;20049;-75
2021/10/28 06:06:15;;;;;;;26.83;21.10;;;;;;;7.33;100.00;101503.72;4880136;29;20059;-74
2021/10/28 06:08:42;;;;;;;27.50;21.45;;;;;;;7.26;100.00;101504.00;4899233;29;20165;-74
2021/10/28 06:11:11;;;;;;;23.60;19.67;;;;;;;7.22;100.00;101503.22;4899730;29;20127;-73
2021/10/28 06:13:46;;;;;;;24.73;21.60;;;;;;;7.28;100.00;101500.41;4861434;29;20052;-75
2021/10/28 06:16:14;;;;;;;25.52;20.33;;;;;;;7.31;100.00;101505.56;4865327;29;20499;-75
2021/10/28 06:18:49;;;;;;;28.48;21.63;;;;;;;7.34;100.00;101509.84;4878735;29;20071;-74
2021/10/28 06:21:27;;;;;;;33.25;25.08;;;;;;;7.40;100.00;101517.50;4881361;29;20044;-75
2021/10/28 06:23:56;;;;;;;36.25;23.38;;;;;;;7.52;100.00;101514.50;4877433;29;20055;-76
2021/10/28 06:26:29;;;;;;;27.63;21.33;;;;;;;7.49;100.00;101516.38;4883684;29;20045;-76
2021/10/28 06:28:57;;;;;;;29.75;21.95;;;;;;;7.55;100.00;101516.16;4869164;29;20071;-75
2021/10/28 06:31:24;;;;;;;26.08;21.08;;;;;;;7.52;100.00;101518.88;4885672;29;20059;-74
2021/10/28 06:33:59;;;;;;;24.95;21.40;;;;;;;7.62;100.00;101520.31;4883190;29;20122;-74
2021/10/28 06:36:27;;;;;;;26.60;20.40;;;;;;;7.58;100.00;101511.69;4900578;29;20059;-74
2021/10/28 06:38:54;;;;;;;27.88;20.88;;;;;;;7.60;100.00;101522.09;4878449;29;20052;-74
2021/10/28 06:41:22;;;;;;;27.20;19.75;;;;;;;7.64;100.00;101515.00;4898059;29;20148;-75
2021/10/28 06:43:49;;;;;;;25.38;19.45;;;;;;;7.74;100.00;101512.03;4890906;29;20052;-74
2021/10/28 06:46:16;;;;;;;26.13;19.83;;;;;;;7.87;100.00;101513.34;4896265;29;20534;-74
2021/10/28 06:48:44;;;;;;;26.05;19.88;;;;;;;8.06;100.00;101507.47;4899720;29;20647;-75
2021/10/28 06:51:12;;;;;;;27.17;19.67;;;;;;;8.14;100.00;101508.06;4890856;29;20059;-75
2021/10/28 06:53:53;;;;;;;24.50;19.23;;;;;;;8.17;100.00;101510.59;4878102;29;20052;-73
2021/10/28 07:04:58;;;;;;;24.55;17.13;;;;;;;8.55;100.00;101506.63;4824993;29;20644;-75
2021/10/28 07:07:26;;;;;;;24.02;17.10;;;;;;;8.60;100.00;101494.22;4826688;29;20058;-75
2021/10/28 07:10:02;;;;;;;22.92;17.60;;;;;;;8.85;100.00;101501.16;4840452;29;20143;-75
2021/10/28 07:15:01;;;;;;;17.83;14.32;;;;;;;11.63;98.33;101498.72;4883601;29;20072;-75
2021/10/28 07:22:56;;;;;;;14.82;11.18;;;;;;;15.63;71.95;101482.66;4904415;29;20049;-75
2021/10/28 07:28:24;;;;;;;18.77;11.00;;;;;;;17.11;61.28;101494.59;4859151;29;20462;-75
2021/10/28 07:34:15;;;;;;;15.88;11.13;;;;;;;18.42;56.21;101490.03;4884286;29;20044;-75
2021/10/28 07:56:17;;;;;;;11.82;9.95;;;;;;;18.62;52.78;101491.13;4858847;29;20064;-75
2021/10/28 07:58:43;;;;;;;12.00;9.60;;;;;;;19.64;50.33;101490.00;4891490;29;20067;-76
2021/10/28 08:04:54;;;;;;;10.35;8.90;;;;;;;20.45;48.13;101477.72;4891774;29;20085;-76
2021/10/28 08:23:14;;;;;;;17.10;9.93;;;;;;;20.67;46.21;101473.22;4893997;29;20052;-73
2021/10/28 08:28:45;;;;;;;;;;;;;;;20.14;47.66;101466.16;4874037;29;20547;-74
2021/10/28 08:31:20;;;;;;;12.80;9.93;;;;;;;20.14;47.27;101470.66;4877270;29;19927;-75
2021/10/28 08:33:48;;;;;;;16.00;9.68;;;;;;;20.41;47.39;101468.28;4871825;29;20056;-75
2021/10/28 08:36:24;;;;;;;11.18;9.20;;;;;;;20.42;47.45;101463.75;4890420;29;20059;-74
2021/10/28 08:38:51;;;;;;;11.40;10.07;;;;;;;20.10;48.39;101456.72;4873862;29;20778;-74
2021/10/28 08:41:20;;;;;;;14.00;9.68;;;;;;;20.54;47.42;101462.72;4890776;29;20062;-73
2021/10/28 08:44:00;;;;;;;13.27;9.55;;;;;;;21.32;45.75;101460.28;4890045;29;20128;-73
2021/10/28 08:46:28;;;;;;;15.98;10.15;;;;;;;21.34;45.17;101456.44;4875111;29;20089;-74
2021/10/28 08:48:59;;;;;;;11.75;9.88;;;;;;;21.21;45.29;101455.88;4874033;29;20044;-74
2021/10/28 08:54:07;;;;;;;12.85;10.23;;;;;;;21.30;45.50;101449.69;4874844;29;20059;-75
2021/10/28 08:56:59;;;;;;;11.63;10.32;;;;;;;20.60;46.55;101453.31;4877088;29;20112;-75
2021/10/28 09:24:59;;;;;;;15.55;10.80;;;;;;;13.49;75.42;101431.56;4877240;29;20040;-75
2021/10/28 09:27:41;;;;;;;13.18;10.98;;;;;;;12.98;78.38;101436.22;4878365;29;20053;-74
2021/10/28 09:30:21;;;;;;;16.02;12.18;;;;;;;12.69;81.38;101430.75;4881083;29;20060;-74
2021/10/28 09:32:52;;;;;;;16.52;11.82;;;;;;;12.72;82.14;101430.59;4888434;29;20049;-73
2021/10/28 09:51:42;;;;;;;15.23;11.82;;;;;;;12.36;85.68;101423.72;4896182;29;20510;-73
2021/10/28 09:54:28;;;;;;;16.30;12.90;;;;;;;12.33;86.71;101415.94;4890021;29;20527;-73
2021/10/28 09:59:42;;;;;;;17.33;12.05;;;;;;;12.36;87.06;101421.06;4906538;29;20167;-73
2021/10/28 10:02:35;;;;;;;15.75;11.98;;;;;;;12.37;86.79;101419.28;4909926;29;20599;-73
2021/10/28 10:05:16;;;;;;;18.05;13.07;;;;;;;12.39;86.79;101413.00;4885459;29;20159;-74
2021/10/28 10:07:47;;;;;;;14.88;12.00;;;;;;;12.45;86.65;101422.38;4901786;29;20714;-74
2021/10/28 10:10:27;;;;;;;15.95;12.00;;;;;;;12.56;86.78;101413.84;4873858;29;20063;-73
2021/10/28 10:12:56;;;;;;;15.68;10.52;;;;;;;12.57;86.55;101415.59;4873791;29;20052;-74
2021/10/28 10:15:23;;;;;;;18.33;11.48;;;;;;;12.66;85.75;101413.28;4893225;29;20056;-72
2021/10/28 10:17:52;;;;;;;15.77;12.10;;;;;;;12.63;85.31;101413.44;4861745;29;20107;-74
2021/10/28 10:20:28;;;;;;;16.38;10.60;;;;;;;12.62;85.48;101414.38;4875071;29;20053;-73
2021/10/28 10:23:23;;;;;;;16.83;11.80;;;;;;;12.70;85.74;101411.34;4902245;29;20068;-73
2021/10/28 12:16:14;;;;;;;12.88;8.73;;;;;;;14.43;73.95;101295.19;4882065;29;20052;-73
2021/10/28 12:21:51;;;;;;;11.27;8.02;;;;;;;14.53;73.17;101295.47;4895116;29;20049;-73
2021/10/28 12:44:29;;;;;;;14.68;8.68;;;;;;;14.62;71.67;101268.38;4898095;29;20105;-74
2021/10/28 13:03:48;;;;;;;15.52;7.68;;;;;;;14.74;70.06;101251.66;4873211;29;20062;-75
2021/10/28 14:30:44;;;;;;;8.25;5.63;;;;;;;14.75;65.37;101157.09;4890358;29;20052;-74
2021/10/28 15:30:57;;;;;;;12.07;7.20;;;;;;;13.53;75.35;101113.03;4897063;29;20139;-74
2021/10/28 15:36:17;;;;;;;12.25;6.40;;;;;;;13.33;76.84;101112.47;4850291;29;20067;-73
2021/10/28 16:22:15;;;;;;;15.13;11.02;;;;;;;12.36;86.00;101082.28;4894965;29;19931;-74
2021/10/28 16:24:42;;;;;;;15.70;11.52;;;;;;;12.45;85.79;101083.53;4876102;29;20056;-74
2021/10/28 16:27:11;;;;;;;21.98;10.98;;;;;;;12.44;86.03;101084.47;4894828;29;20083;-74
2021/10/28 16:29:38;;;;;;;17.13;10.90;;;;;;;12.47;85.99;101084.25;4876265;29;20056;-75
2021/10/28 16:32:05;;;;;;;15.60;10.65;;;;;;;12.46;85.66;101074.66;4896008;29;20428;-73
2021/10/28 16:34:32;;;;;;;16.00;11.32;;;;;;;12.46;85.98;101069.38;4893422;29;20086;-74
2021/10/28 16:37:00;;;;;;;20.23;11.90;;;;;;;12.49;85.45;101071.84;4877275;29;20072;-74
2021/10/28 16:39:33;;;;;;;16.33;10.65;;;;;;;12.49;85.02;101070.03;4893095;29;20060;-74
2021/10/28 16:42:00;;;;;;;12.77;10.68;;;;;;;12.34;85.80;101065.69;4864764;29;20062;-73
2021/10/28 16:44:27;;;;;;;14.75;11.02;;;;;;;12.29;86.29;101068.59;4892701;29;20083;-74
2021/10/28 16:46:55;;;;;;;17.67;11.10;;;;;;;12.38;86.24;101070.69;4894077;29;20056;-74
2021/10/28 16:49:23;;;;;;;16.20;11.05;;;;;;;12.39;85.97;101076.81;4891009;29;20559;-73
2021/10/28 16:51:50;;;;;;;16.08;11.43;;;;;;;12.24;86.48;101065.34;4894575;29;20052;-74
2021/10/28 16:54:18;;;;;;;13.95;10.45;;;;;;;12.37;86.13;101068.13;4888588;29;20151;-74
2021/10/28 16:56:47;;;;;;;13.35;10.60;;;;;;;12.23;87.06;101068.09;4879358;29;20056;-74
2021/10/28 16:59:14;;;;;;;14.20;10.70;;;;;;;12.15;87.35;101066.72;4893207;29;20064;-74
2021/10/28 17:01:41;;;;;;;18.40;11.27;;;;;;;12.09;87.79;101072.38;4895508;29;20435;-74
2021/10/28 17:04:09;;;;;;;25.77;11.52;;;;;;;12.15;87.59;101066.72;4875191;29;20056;-73
2021/10/28 17:06:36;;;;;;;14.52;11.13;;;;;;;12.13;87.57;101062.50;4877061;29;20073;-77
2021/10/28 17:09:07;;;;;;;15.95;10.68;;;;;;;12.01;88.68;101058.78;4893860;29;20052;-75
2021/10/28 17:11:35;;;;;;;16.83;10.77;;;;;;;11.90;89.25;101055.91;4866490;29;20147;-75
2021/10/28 17:14:07;;;;;;;14.57;11.20;;;;;;;12.02;88.53;101055.22;4893784;29;20060;-76
2021/10/28 17:16:36;;;;;;;16.90;11.43;;;;;;;11.92;88.98;101056.66;4899282;29;20086;-75
2021/10/28 17:19:04;;;;;;;19.35;12.07;;;;;;;11.94;89.04;101062.72;4883343;29;20049;-76
2021/10/28 17:21:31;;;;;;;23.50;13.02;;;;;;;11.98;88.32;101061.63;4898275;29;20063;-75
2021/10/28 17:24:03;;;;;;;15.27;12.15;;;;;;;11.86;90.10;101067.59;4900095;29;20504;-75
2021/10/28 17:26:32;;;;;;;15.93;11.50;;;;;;;11.76;90.23;101061.97;4896832;29;20059;-74
2021/10/28 17:29:02;;;;;;;14.60;10.50;;;;;;;11.78;89.73;101054.78;4900985;29;20166;-76
2021/10/28 17:31:32;;;;;;;17.50;11.55;;;;;;;11.82;88.76;101055.47;4884946;29;20078;-75
2021/10/28 17:34:02;;;;;;;16.95;10.63;;;;;;;11.82;88.62;101061.63;4904108;29;20281;-76
2021/10/28 17:36:30;;;;;;;13.18;9.95;;;;;;;11.86;88.08;101057.03;4901007;29;20128;-76
2021/10/28 17:39:00;;;;;;;14.25;10.05;;;;;;;11.86;87.68;101060.53;4900060;29;20140;-76
2021/10/28 17:41:27;;;;;;;15.25;10.88;;;;;;;11.86;87.47;101057.03;4876991;29;20062;-76
2021/10/28 17:43:56;;;;;;;14.25;10.18;;;;;;;11.87;86.29;101059.56;4890727;29;20056;-75
2021/10/28 17:46:26;;;;;;;14.23;9.68;;;;;;;11.82;87.17;101058.13;4887917;29;20048;-76
2021/10/28 17:48:54;;;;;;;14.50;9.70;;;;;;;11.83;86.34;101057.19;4890584;29;20044;-77
2021/10/28 17:51:21;;;;;;;15.38;10.60;;;;;;;11.78;86.51;101059.22;4897256;29;20580;-75
2021/10/28 17:53:49;;;;;;;13.95;10.48;;;;;;;11.71;86.37;101057.84;4881040;29;20865;-76
2021/10/28 17:56:17;;;;;;;15.00;10.63;;;;;;;11.67;86.87;101062.47;4897981;29;20065;-75
2021/10/28 17:58:45;;;;;;;20.13;10.27;;;;;;;11.60;87.73;101061.13;4901774;29;20054;-75
2021/10/28 18:01:19;;;;;;;18.92;10.50;;;;;;;11.53;88.23;101063.25;4904221;29;20067;-74
2021/10/28 18:03:49;;;;;;;13.73;10.95;;;;;;;11.40;89.61;101064.88;4853882;29;20052;-75
2021/10/28 18:06:16;;;;;;;21.17;12.20;;;;;;;11.39;90.10;101060.50;4875678;29;20056;-75
2021/10/28 18:08:43;;;;;;;18.48;11.07;;;;;;;11.27;90.73;101066.47;4890706;29;20416;-78
2021/10/28 18:11:11;;;;;;;21.90;12.23;;;;;;;11.19;91.49;101058.13;4875110;29;20140;-75
2021/10/28 18:13:38;;;;;;;20.65;11.98;;;;;;;11.10;92.03;101054.22;4876384;29;21048;-73
2021/10/28 18:16:06;;;;;;;23.15;12.40;;;;;;;11.00;93.06;101050.38;4882840;29;20073;-73
2021/10/28 18:18:35;;;;;;;20.40;12.90;;;;;;;10.98;92.87;101054.88;4883853;29;20060;-74
2021/10/28 18:21:03;;;;;;;19.33;12.55;;;;;;;10.89;93.25;101054.41;4886587;29;20049;-73
2021/10/28 18:23:33;;;;;;;21.55;12.35;;;;;;;10.75;94.17;101049.03;4878947;29;20063;-74
2021/10/28 18:26:00;;;;;;;17.45;12.02;;;;;;;10.81;93.67;101045.25;4891884;29;20306;-72
2021/10/28 18:28:27;;;;;;;21.52;12.05;;;;;;;10.77;93.74;101046.34;4895432;29;20056;-74
2021/10/28 18:30:55;;;;;;;15.10;12.18;;;;;;;10.67;94.64;101050.38;4892779;29;20056;-74
2021/10/28 18:33:22;;;;;;;21.67;13.05;;;;;;;10.55;95.42;101047.47;4895561;29;20143;-74
2021/10/28 18:35:51;;;;;;;19.52;12.15;;;;;;;10.52;95.64;101047.63;4892307;29;20131;-74
2021/10/28 18:38:21;;;;;;;19.15;12.82;;;;;;;10.43;96.34;101049.88;4880429;29;20152;-74
2021/10/28 18:40:48;;;;;;;17.58;11.68;;;;;;;10.46;96.30;101047.94;4880240;29;20041;-73
2021/10/28 18:43:17;;;;;;;19.55;12.43;;;;;;;10.35;97.22;101042.38;4895455;29;20147;-74
2021/10/28 18:45:44;;;;;;;18.92;12.38;;;;;;;10.36;96.66;101039.69;4897412;29;20065;-73
2021/10/28 18:48:13;;;;;;;20.38;12.07;;;;;;;10.33;96.59;101039.81;4896275;29;20414;-73
2021/10/28 18:50:40;;;;;;;21.00;12.68;;;;;;;10.24;97.34;101035.03;4894519;29;20056;-74
2021/10/28 18:53:07;;;;;;;16.08;11.75;;;;;;;10.18;97.30;101032.69;4898818;29;20068;-73
2021/10/28 18:55:36;;;;;;;16.65;11.45;;;;;;;10.14;97.48;101026.72;4893584;29;20048;-74
2021/10/28 18:58:03;;;;;;;17.27;10.95;;;;;;;10.15;96.80;101022.31;4881417;29;20041;-73
2021/10/28 19:00:30;;;;;;;18.15;11.38;;;;;;;10.09;96.98;101014.75;4895505;29;20440;-72
2021/10/28 19:02:59;;;;;;;20.15;11.57;;;;;;;9.97;97.25;101021.47;4895969;29;20087;-74
2021/10/28 19:05:27;;;;;;;17.38;11.05;;;;;;;9.93;96.72;101004.13;4875993;29;20044;-73
2021/10/28 19:07:54;;;;;;;16.40;10.18;;;;;;;9.90;97.00;101005.13;4895528;29;20048;-72
2021/10/28 19:10:22;;;;;;;16.00;10.93;;;;;;;9.85;96.89;101009.75;4875580;29;20060;-72
2021/10/28 19:12:54;;;;;;;13.10;10.15;;;;;;;9.90;95.50;101004.28;4897870;29;20060;-72
2021/10/28 19:15:21;;;;;;;12.65;10.07;;;;;;;9.85;95.56;101001.03;4891356;29;20048;-72
2021/10/28 19:17:51;;;;;;;13.18;9.93;;;;;;;9.80;95.57;100996.00;4879402;29;20062;-73
2021/10/28 19:20:18;;;;;;;18.75;10.60;;;;;;;9.64;96.44;101001.19;4893747;29;20053;-72
2021/10/28 19:22:46;;;;;;;18.67;10.30;;;;;;;9.60;96.27;100999.63;4877649;29;20515;-72
2021/10/28 19:25:13;;;;;;;14.73;9.63;;;;;;;9.76;94.88;100996.22;4876350;29;20136;-74
2021/10/28 19:27:40;;;;;;;15.38;9.68;;;;;;;9.68;94.76;100986.09;4896184;29;20061;-75
2021/10/28 19:30:21;;;;;;;12.13;9.65;;;;;;;9.89;92.28;100989.44;4877587;29;20064;-73
2021/10/28 19:32:50;;;;;;;16.88;10.65;;;;;;;9.98;91.20;100985.47;4899575;29;20059;-73
2021/10/28 19:35:19;;;;;;;18.17;10.27;;;;;;;9.95;90.63;100978.63;4898441;29;20096;-74
2021/10/28 19:38:01;;;;;;;16.40;10.35;;;;;;;9.95;90.72;100973.34;4897534;29;20074;-75
2021/10/28 19:41:00;;;;;;;14.13;9.57;;;;;;;9.93;90.45;100980.47;4900326;29;20069;-75
2021/10/28 19:46:18;;;;;;;12.23;9.48;;;;;;;9.89;90.44;100974.50;4899211;29;20082;-72
2021/10/28 19:48:46;;;;;;;11.00;9.48;;;;;;;9.83;90.58;100985.34;4887436;29;20056;-72
2021/10/28 19:51:15;;;;;;;14.60;10.77;;;;;;;9.81;90.19;100981.91;4883807;29;20112;-74
2021/10/28 19:53:43;;;;;;;19.55;9.13;;;;;;;9.89;88.99;100979.75;4898646;29;20629;-75
2021/10/28 19:56:13;;;;;;;17.20;10.05;;;;;;;9.82;89.57;100977.53;4861300;29;20049;-74